N365AD -KSAN
Flight info
| Callsign | N365AD |
|---|---|
| Flight time | N/A |
| Altitude | VFR |
| Route | |
| Aircraft | C172/L-VGD/C |
Departure
| Time | N/A |
|---|---|
| Airport | - |
Arrival
| Time | 2026-05-06 02:19 |
|---|---|
| Airport | San Diego International Airport (KSAN) |
| Time | Latitude | Longitude | Altitude | Speed | Heading |
|---|---|---|---|---|---|
| 2026-05-06 02:19 | 32.73339 | -117.17874 | 19 ft | 0 kts | 185° |
| 2026-05-06 02:20 | 32.73287 | -117.17907 | 18 ft | 15 kts | 256° |
| 2026-05-06 02:20 | 32.73226 | -117.17957 | 17 ft | 14 kts | 112° |
| 2026-05-06 02:21 | 32.73197 | -117.17838 | 17 ft | 15 kts | 106° |
| 2026-05-06 02:21 | 32.73169 | -117.17718 | 18 ft | 15 kts | 104° |
| 2026-05-06 02:21 | 32.73140 | -117.17600 | 17 ft | 15 kts | 117° |
| 2026-05-06 02:21 | 32.73060 | -117.17533 | 17 ft | 13 kts | 177° |
| 2026-05-06 02:22 | 32.73037 | -117.17626 | 16 ft | 22 kts | 285° |
| 2026-05-06 02:22 | 32.73142 | -117.17988 | 14 ft | 67 kts | 292° |
| 2026-05-06 02:22 | 32.73231 | -117.18593 | 119 ft | 80 kts | 282° |
| 2026-05-06 02:22 | 32.73389 | -117.19274 | 227 ft | 91 kts | 291° |
| 2026-05-06 02:23 | 32.73599 | -117.19975 | 402 ft | 90 kts | 290° |
| 2026-05-06 02:23 | 32.73790 | -117.20671 | 588 ft | 90 kts | 290° |
| 2026-05-06 02:23 | 32.74109 | -117.21181 | 929 ft | 82 kts | 347° |
| 2026-05-06 02:23 | 32.74581 | -117.20714 | 1053 ft | 110 kts | 83° |
| 2026-05-06 02:24 | 32.74586 | -117.19755 | 1189 ft | 119 kts | 89° |
| 2026-05-06 02:24 | 32.74629 | -117.18689 | 1080 ft | 138 kts | 84° |
| 2026-05-06 02:24 | 32.74724 | -117.17554 | 1119 ft | 138 kts | 82° |
| 2026-05-06 02:24 | 32.74806 | -117.16454 | 1268 ft | 131 kts | 86° |
| 2026-05-06 02:25 | 32.74768 | -117.15352 | 1023 ft | 146 kts | 109° |
| 2026-05-06 02:25 | 32.74115 | -117.14691 | 947 ft | 113 kts | 182° |
| 2026-05-06 02:25 | 32.73427 | -117.15023 | 795 ft | 119 kts | 217° |
| 2026-05-06 02:25 | 32.72776 | -117.15695 | 644 ft | 126 kts | 243° |
| 2026-05-06 02:26 | 32.72768 | -117.16668 | 387 ft | 122 kts | 293° |
| 2026-05-06 02:26 | 32.73022 | -117.17606 | 70 ft | 113 kts | 290° |
| 2026-05-06 02:26 | 32.73229 | -117.18396 | 108 ft | 91 kts | 287° |
| 2026-05-06 02:26 | 32.73386 | -117.19094 | 391 ft | 83 kts | 289° |
| 2026-05-06 02:27 | 32.73532 | -117.19673 | 765 ft | 65 kts | 293° |
| 2026-05-06 02:27 | 32.73966 | -117.19519 | 897 ft | 95 kts | 54° |
| 2026-05-06 02:27 | 32.74107 | -117.18696 | 1022 ft | 115 kts | 89° |
| 2026-05-06 02:27 | 32.74150 | -117.17649 | 861 ft | 128 kts | 84° |
| 2026-05-06 02:28 | 32.74240 | -117.16657 | 920 ft | 112 kts | 81° |
| 2026-05-06 02:28 | 32.74354 | -117.15799 | 977 ft | 102 kts | 78° |
| 2026-05-06 02:28 | 32.74469 | -117.15037 | 1037 ft | 93 kts | 80° |
| 2026-05-06 02:28 | 32.74085 | -117.14399 | 976 ft | 112 kts | 171° |
| 2026-05-06 02:29 | 32.73303 | -117.14556 | 847 ft | 126 kts | 204° |
| 2026-05-06 02:29 | 32.72598 | -117.15042 | 869 ft | 104 kts | 247° |
| 2026-05-06 02:29 | 32.72547 | -117.15867 | 517 ft | 115 kts | 290° |
| 2026-05-06 02:29 | 32.72809 | -117.16779 | 264 ft | 112 kts | 284° |
| 2026-05-06 02:30 | 32.73024 | -117.17613 | 60 ft | 97 kts | 289° |
| 2026-05-06 02:30 | 32.73196 | -117.18319 | 73 ft | 87 kts | 280° |
| 2026-05-06 02:30 | 32.73351 | -117.19008 | 310 ft | 84 kts | 292° |
| 2026-05-06 02:30 | 32.73465 | -117.19626 | 538 ft | 84 kts | 283° |
| 2026-05-06 02:31 | 32.73653 | -117.20339 | 623 ft | 90 kts | 291° |
| 2026-05-06 02:31 | 32.74077 | -117.20890 | 705 ft | 98 kts | 321° |
| 2026-05-06 02:31 | 32.74608 | -117.21383 | 893 ft | 97 kts | 316° |
| 2026-05-06 02:31 | 32.75113 | -117.21947 | 1070 ft | 104 kts | 312° |
| 2026-05-06 02:32 | 32.75617 | -117.22603 | 1163 ft | 110 kts | 310° |